sensor_id;sensor_type;location;lat;lon;timestamp;pressure;altitude;pressure_sealevel;temperature;humidity
50268;BME280;36153;50.960;6.220;2023-09-19T00:01:54;99916.88;;;20.12;59.12
50268;BME280;36153;50.960;6.220;2023-09-19T00:04:55;99924.13;;;20.31;58.98
50268;BME280;36153;50.960;6.220;2023-09-19T00:07:56;99922.84;;;20.41;58.40
50268;BME280;36153;50.960;6.220;2023-09-19T00:11:00;99925.63;;;20.38;57.92
50268;BME280;36153;50.960;6.220;2023-09-19T00:14:06;99931.25;;;20.28;58.37
50268;BME280;36153;50.960;6.220;2023-09-19T00:17:08;99929.44;;;20.05;58.81
50268;BME280;36153;50.960;6.220;2023-09-19T00:20:09;99929.63;;;20.24;58.67
50268;BME280;36153;50.960;6.220;2023-09-19T00:23:13;99935.25;;;20.39;58.47
50268;BME280;36153;50.960;6.220;2023-09-19T00:26:13;99943.09;;;20.42;58.00
50268;BME280;36153;50.960;6.220;2023-09-19T00:29:14;99939.88;;;20.34;58.51
50268;BME280;36153;50.960;6.220;2023-09-19T00:32:16;99940.63;;;20.59;57.38
50268;BME280;36153;50.960;6.220;2023-09-19T00:35:16;99944.41;;;20.30;57.44
50268;BME280;36153;50.960;6.220;2023-09-19T00:38:17;99948.13;;;20.48;57.01
50268;BME280;36153;50.960;6.220;2023-09-19T00:41:21;99944.69;;;20.46;56.61
50268;BME280;36153;50.960;6.220;2023-09-19T00:44:22;99947.44;;;20.43;56.73
50268;BME280;36153;50.960;6.220;2023-09-19T00:47:23;99951.94;;;20.41;56.76
50268;BME280;36153;50.960;6.220;2023-09-19T00:50:26;99950.66;;;20.27;57.14
50268;BME280;36153;50.960;6.220;2023-09-19T00:53:28;99960.19;;;20.32;56.99
50268;BME280;36153;50.960;6.220;2023-09-19T00:56:30;99961.09;;;20.07;57.81
50268;BME280;36153;50.960;6.220;2023-09-19T00:59:31;99963.53;;;20.13;57.78
50268;BME280;36153;50.960;6.220;2023-09-19T01:02:32;99965.34;;;20.11;57.90
50268;BME280;36153;50.960;6.220;2023-09-19T01:05:36;99966.34;;;20.08;57.91
50268;BME280;36153;50.960;6.220;2023-09-19T01:08:36;99970.44;;;20.17;57.82
50268;BME280;36153;50.960;6.220;2023-09-19T01:11:43;99976.03;;;20.08;57.67
50268;BME280;36153;50.960;6.220;2023-09-19T01:15:08;99985.09;;;20.01;57.60
50268;BME280;36153;50.960;6.220;2023-09-19T01:22:00;99979.28;;;19.91;57.84
50268;BME280;36153;50.960;6.220;2023-09-19T01:28:54;99979.81;;;19.75;58.38
50268;BME280;36153;50.960;6.220;2023-09-19T01:32:04;99988.09;;;19.65;58.44
50268;BME280;36153;50.960;6.220;2023-09-19T01:35:05;99984.28;;;19.47;58.38
50268;BME280;36153;50.960;6.220;2023-09-19T01:38:08;99984.31;;;19.72;57.94
50268;BME280;36153;50.960;6.220;2023-09-19T01:41:17;99996.38;;;19.54;58.22
50268;BME280;36153;50.960;6.220;2023-09-19T01:44:40;99991.56;;;19.67;57.52
50268;BME280;36153;50.960;6.220;2023-09-19T01:47:49;100004.84;;;19.64;57.30
50268;BME280;36153;50.960;6.220;2023-09-19T01:51:05;100014.56;;;19.63;57.68
50268;BME280;36153;50.960;6.220;2023-09-19T01:54:09;100009.56;;;19.54;58.09
50268;BME280;36153;50.960;6.220;2023-09-19T01:57:29;100016.97;;;19.69;57.71
50268;BME280;36153;50.960;6.220;2023-09-19T02:00:32;100014.09;;;19.50;58.15
50268;BME280;36153;50.960;6.220;2023-09-19T02:03:35;100021.34;;;19.43;58.61
50268;BME280;36153;50.960;6.220;2023-09-19T02:06:40;100026.03;;;19.35;58.74
50268;BME280;36153;50.960;6.220;2023-09-19T02:09:41;100022.94;;;19.22;58.65
50268;BME280;36153;50.960;6.220;2023-09-19T02:12:42;100027.41;;;19.47;58.12
50268;BME280;36153;50.960;6.220;2023-09-19T02:15:43;100031.63;;;19.24;58.52
50268;BME280;36153;50.960;6.220;2023-09-19T02:18:50;100024.66;;;19.23;58.01
50268;BME280;36153;50.960;6.220;2023-09-19T02:21:51;100035.50;;;19.14;58.46
50268;BME280;36153;50.960;6.220;2023-09-19T02:24:52;100037.06;;;19.20;57.92
50268;BME280;36153;50.960;6.220;2023-09-19T02:27:53;100033.78;;;19.40;58.20
50268;BME280;36153;50.960;6.220;2023-09-19T02:30:54;100030.56;;;19.30;58.33
50268;BME280;36153;50.960;6.220;2023-09-19T02:33:55;100027.31;;;19.23;59.00
50268;BME280;36153;50.960;6.220;2023-09-19T02:36:56;100032.03;;;19.12;58.98
50268;BME280;36153;50.960;6.220;2023-09-19T02:39:57;100041.72;;;19.12;59.16
50268;BME280;36153;50.960;6.220;2023-09-19T02:42:57;100031.94;;;19.15;58.94
50268;BME280;36153;50.960;6.220;2023-09-19T02:45:59;100038.31;;;19.08;58.97
50268;BME280;36153;50.960;6.220;2023-09-19T02:48:59;100029.94;;;19.23;58.46
50268;BME280;36153;50.960;6.220;2023-09-19T02:52:00;100029.31;;;19.15;58.29
50268;BME280;36153;50.960;6.220;2023-09-19T02:55:00;100026.38;;;19.24;58.15
50268;BME280;36153;50.960;6.220;2023-09-19T02:58:01;100029.94;;;19.23;57.83
50268;BME280;36153;50.960;6.220;2023-09-19T03:01:09;100031.94;;;19.15;57.99
50268;BME280;36153;50.960;6.220;2023-09-19T03:04:11;100035.88;;;19.02;58.25
50268;BME280;36153;50.960;6.220;2023-09-19T03:07:12;100041.00;;;19.06;58.06
50268;BME280;36153;50.960;6.220;2023-09-19T03:10:13;100050.59;;;19.09;57.79
50268;BME280;36153;50.960;6.220;2023-09-19T03:13:15;100037.22;;;19.15;57.67
50268;BME280;36153;50.960;6.220;2023-09-19T03:16:15;100043.94;;;19.25;57.11
50268;BME280;36153;50.960;6.220;2023-09-19T03:19:16;100044.38;;;19.12;57.35
50268;BME280;36153;50.960;6.220;2023-09-19T03:22:17;100042.53;;;19.14;57.22
50268;BME280;36153;50.960;6.220;2023-09-19T03:25:18;100046.41;;;19.30;56.61
50268;BME280;36153;50.960;6.220;2023-09-19T03:28:19;100037.03;;;19.21;56.93
50268;BME280;36153;50.960;6.220;2023-09-19T03:31:21;100050.88;;;19.28;56.83
50268;BME280;36153;50.960;6.220;2023-09-19T03:34:22;100056.88;;;19.05;57.26
50268;BME280;36153;50.960;6.220;2023-09-19T03:37:22;100056.31;;;19.23;56.55
50268;BME280;36153;50.960;6.220;2023-09-19T03:40:22;100056.00;;;19.33;56.48
50268;BME280;36153;50.960;6.220;2023-09-19T03:43:25;100055.50;;;19.21;56.82
50268;BME280;36153;50.960;6.220;2023-09-19T03:46:26;100057.50;;;19.13;57.00
50268;BME280;36153;50.960;6.220;2023-09-19T03:49:26;100054.88;;;19.13;57.00
50268;BME280;36153;50.960;6.220;2023-09-19T03:52:27;100056.69;;;19.11;56.81
50268;BME280;36153;50.960;6.220;2023-09-19T03:55:27;100056.69;;;19.11;56.83
50268;BME280;36153;50.960;6.220;2023-09-19T03:58:28;100054.69;;;19.19;56.29
50268;BME280;36153;50.960;6.220;2023-09-19T04:01:28;100054.06;;;19.11;56.38
50268;BME280;36153;50.960;6.220;2023-09-19T04:04:30;100058.59;;;19.06;56.45
50268;BME280;36153;50.960;6.220;2023-09-19T04:07:31;100051.91;;;18.94;56.59
50268;BME280;36153;50.960;6.220;2023-09-19T04:10:31;100044.88;;;18.95;56.70
50268;BME280;36153;50.960;6.220;2023-09-19T04:13:32;100051.16;;;18.90;56.32
50268;BME280;36153;50.960;6.220;2023-09-19T04:16:32;100050.53;;;19.10;55.71
50268;BME280;36153;50.960;6.220;2023-09-19T04:19:33;100047.09;;;19.08;55.71
50268;BME280;36153;50.960;6.220;2023-09-19T04:22:33;100054.22;;;19.05;55.92
50268;BME280;36153;50.960;6.220;2023-09-19T04:25:34;100045.63;;;18.98;55.90
50268;BME280;36153;50.960;6.220;2023-09-19T04:28:34;100044.22;;;18.86;55.78
50268;BME280;36153;50.960;6.220;2023-09-19T04:31:38;100043.78;;;19.02;55.62
50268;BME280;36153;50.960;6.220;2023-09-19T04:34:40;100046.88;;;18.86;55.71
50268;BME280;36153;50.960;6.220;2023-09-19T04:37:41;100048.53;;;18.90;55.61
50268;BME280;36153;50.960;6.220;2023-09-19T04:40:44;100049.38;;;18.91;55.68
50268;BME280;36153;50.960;6.220;2023-09-19T04:43:44;100055.25;;;19.01;55.26
50268;BME280;36153;50.960;6.220;2023-09-19T04:46:44;100066.69;;;19.00;55.55
50268;BME280;36153;50.960;6.220;2023-09-19T04:49:46;100065.78;;;19.01;55.20
50268;BME280;36153;50.960;6.220;2023-09-19T04:52:49;100071.06;;;19.01;55.29
50268;BME280;36153;50.960;6.220;2023-09-19T04:55:51;100075.63;;;18.96;55.56
50268;BME280;36153;50.960;6.220;2023-09-19T04:58:52;100084.00;;;19.10;55.12
50268;BME280;36153;50.960;6.220;2023-09-19T05:01:54;100069.75;;;19.16;54.81
50268;BME280;36153;50.960;6.220;2023-09-19T05:04:54;100080.41;;;19.13;54.71
50268;BME280;36153;50.960;6.220;2023-09-19T05:07:54;100075.16;;;19.11;54.63
50268;BME280;36153;50.960;6.220;2023-09-19T05:10:55;100082.09;;;19.14;54.97
50268;BME280;36153;50.960;6.220;2023-09-19T05:13:56;100081.44;;;19.07;55.02
50268;BME280;36153;50.960;6.220;2023-09-19T05:16:56;100087.78;;;19.01;55.16
50268;BME280;36153;50.960;6.220;2023-09-19T05:19:57;100097.97;;;18.82;55.66
50268;BME280;36153;50.960;6.220;2023-09-19T05:23:18;100100.97;;;19.00;55.41
50268;BME280;36153;50.960;6.220;2023-09-19T05:26:21;100097.81;;;18.87;55.99
50268;BME280;36153;50.960;6.220;2023-09-19T05:29:21;100104.00;;;18.87;55.86
50268;BME280;36153;50.960;6.220;2023-09-19T05:32:22;100117.16;;;18.89;55.90
50268;BME280;36153;50.960;6.220;2023-09-19T05:35:23;100124.09;;;18.91;56.20
50268;BME280;36153;50.960;6.220;2023-09-19T05:38:24;100124.06;;;18.93;56.22
50268;BME280;36153;50.960;6.220;2023-09-19T05:41:26;100126.81;;;18.87;56.37
50268;BME280;36153;50.960;6.220;2023-09-19T05:44:26;100131.78;;;18.99;56.26
50268;BME280;36153;50.960;6.220;2023-09-19T05:47:27;100132.34;;;18.79;56.91
50268;BME280;36153;50.960;6.220;2023-09-19T05:50:28;100138.31;;;18.84;56.99
50268;BME280;36153;50.960;6.220;2023-09-19T05:53:28;100146.63;;;18.70;57.43
50268;BME280;36153;50.960;6.220;2023-09-19T05:56:28;100152.28;;;18.89;57.13
50268;BME280;36153;50.960;6.220;2023-09-19T05:59:29;100153.28;;;18.84;57.50
50268;BME280;36153;50.960;6.220;2023-09-19T06:02:30;100164.09;;;18.74;57.50
50268;BME280;36153;50.960;6.220;2023-09-19T06:05:30;100168.69;;;18.68;57.88
50268;BME280;36153;50.960;6.220;2023-09-19T06:08:32;100161.25;;;18.82;57.50
50268;BME280;36153;50.960;6.220;2023-09-19T06:11:37;100156.75;;;18.87;57.24
50268;BME280;36153;50.960;6.220;2023-09-19T06:14:37;100159.94;;;18.99;57.04
50268;BME280;36153;50.960;6.220;2023-09-19T06:17:42;100157.31;;;18.99;57.05
50268;BME280;36153;50.960;6.220;2023-09-19T06:20:43;100158.72;;;19.10;56.51
50268;BME280;36153;50.960;6.220;2023-09-19T06:23:45;100159.19;;;19.25;56.19
50268;BME280;36153;50.960;6.220;2023-09-19T06:26:45;100161.03;;;19.21;57.13
50268;BME280;36153;50.960;6.220;2023-09-19T06:29:45;100154.97;;;19.19;56.46
50268;BME280;36153;50.960;6.220;2023-09-19T06:32:46;100155.38;;;19.04;56.91
50268;BME280;36153;50.960;6.220;2023-09-19T06:35:50;100155.28;;;19.37;55.90
50268;BME280;36153;50.960;6.220;2023-09-19T06:38:53;100156.34;;;19.59;55.63
50268;BME280;36153;50.960;6.220;2023-09-19T06:41:54;100155.53;;;19.57;55.65
50268;BME280;36153;50.960;6.220;2023-09-19T06:44:55;100157.06;;;19.65;55.20
50268;BME280;36153;50.960;6.220;2023-09-19T06:47:56;100146.63;;;19.61;55.46
50268;BME280;36153;50.960;6.220;2023-09-19T06:50:57;100145.50;;;19.69;55.34
50268;BME280;36153;50.960;6.220;2023-09-19T06:54:08;100147.63;;;19.86;55.02
50268;BME280;36153;50.960;6.220;2023-09-19T06:57:08;100146.66;;;19.88;54.70
50268;BME280;36153;50.960;6.220;2023-09-19T07:00:11;100151.03;;;20.16;54.33
50268;BME280;36153;50.960;6.220;2023-09-19T07:03:24;100150.13;;;19.90;54.42
50268;BME280;36153;50.960;6.220;2023-09-19T07:06:27;100159.34;;;19.77;55.04
50268;BME280;36153;50.960;6.220;2023-09-19T07:09:28;100150.22;;;19.87;54.56
50268;BME280;36153;50.960;6.220;2023-09-19T07:12:28;100161.91;;;19.80;54.77
50268;BME280;36153;50.960;6.220;2023-09-19T07:15:31;100163.06;;;20.25;53.95
50268;BME280;36153;50.960;6.220;2023-09-19T07:18:33;100170.53;;;19.85;54.63
50268;BME280;36153;50.960;6.220;2023-09-19T07:21:33;100173.25;;;20.10;54.46
50268;BME280;36153;50.960;6.220;2023-09-19T07:24:35;100178.38;;;20.42;53.82
50268;BME280;36153;50.960;6.220;2023-09-19T07:27:36;100183.47;;;20.46;53.69
50268;BME280;36153;50.960;6.220;2023-09-19T07:30:37;100181.91;;;20.41;53.67
50268;BME280;36153;50.960;6.220;2023-09-19T07:33:37;100187.31;;;20.63;52.83
50268;BME280;36153;50.960;6.220;2023-09-19T07:36:38;100184.03;;;20.56;52.57
50268;BME280;36153;50.960;6.220;2023-09-19T07:39:39;100182.16;;;20.60;52.82
50268;BME280;36153;50.960;6.220;2023-09-19T07:42:41;100192.56;;;20.64;52.69
50268;BME280;36153;50.960;6.220;2023-09-19T07:45:44;100190.25;;;20.80;52.80
50268;BME280;36153;50.960;6.220;2023-09-19T07:48:44;100185.50;;;21.14;52.09
50268;BME280;36153;50.960;6.220;2023-09-19T07:51:48;100192.06;;;21.27;51.22
50268;BME280;36153;50.960;6.220;2023-09-19T07:54:49;100188.63;;;21.25;52.18
50268;BME280;36153;50.960;6.220;2023-09-19T07:57:49;100176.59;;;21.17;51.45
50268;BME280;36153;50.960;6.220;2023-09-19T08:00:49;100171.91;;;21.47;50.99
50268;BME280;36153;50.960;6.220;2023-09-19T08:03:50;100179.53;;;21.56;50.55
50268;BME280;36153;50.960;6.220;2023-09-19T08:06:50;100182.50;;;21.47;50.66
50268;BME280;36153;50.960;6.220;2023-09-19T08:09:52;100186.00;;;21.71;50.60
50268;BME280;36153;50.960;6.220;2023-09-19T08:12:52;100180.66;;;21.73;50.38
50268;BME280;36153;50.960;6.220;2023-09-19T08:15:58;100186.25;;;21.65;50.45
50268;BME280;36153;50.960;6.220;2023-09-19T08:18:58;100180.81;;;21.90;49.46
50268;BME280;36153;50.960;6.220;2023-09-19T08:22:00;100185.69;;;21.79;49.50
50268;BME280;36153;50.960;6.220;2023-09-19T08:25:01;100189.00;;;21.62;49.47
50268;BME280;36153;50.960;6.220;2023-09-19T08:28:02;100195.38;;;21.80;49.33
50268;BME280;36153;50.960;6.220;2023-09-19T08:31:08;100194.69;;;21.97;49.01
50268;BME280;36153;50.960;6.220;2023-09-19T08:34:09;100187.00;;;22.11;48.48
50268;BME280;36153;50.960;6.220;2023-09-19T08:37:09;100187.63;;;22.18;48.63
50268;BME280;36153;50.960;6.220;2023-09-19T08:40:11;100206.91;;;22.44;47.99
50268;BME280;36153;50.960;6.220;2023-09-19T08:43:13;100194.13;;;22.11;47.96
50268;BME280;36153;50.960;6.220;2023-09-19T08:46:18;100194.44;;;22.66;47.85
50268;BME280;36153;50.960;6.220;2023-09-19T08:49:33;100200.00;;;22.81;47.18
50268;BME280;36153;50.960;6.220;2023-09-19T08:52:41;100200.81;;;22.83;47.19
50268;BME280;36153;50.960;6.220;2023-09-19T08:55:43;100210.16;;;22.71;47.57
50268;BME280;36153;50.960;6.220;2023-09-19T09:02:03;100197.19;;;23.05;46.88
50268;BME280;36153;50.960;6.220;2023-09-19T09:05:04;100202.31;;;22.89;47.29
50268;BME280;36153;50.960;6.220;2023-09-19T09:08:06;100209.28;;;22.91;46.53
50268;BME280;36153;50.960;6.220;2023-09-19T09:11:06;100203.31;;;22.86;47.31
50268;BME280;36153;50.960;6.220;2023-09-19T09:14:08;100202.00;;;22.55;46.97
50268;BME280;36153;50.960;6.220;2023-09-19T09:17:10;100209.75;;;22.60;46.79
50268;BME280;36153;50.960;6.220;2023-09-19T09:20:11;100202.78;;;22.57;46.94
50268;BME280;36153;50.960;6.220;2023-09-19T09:23:11;100203.38;;;22.43;46.96
50268;BME280;36153;50.960;6.220;2023-09-19T09:26:14;100194.56;;;22.84;46.16
50268;BME280;36153;50.960;6.220;2023-09-19T09:29:14;100200.94;;;22.80;47.17
50268;BME280;36153;50.960;6.220;2023-09-19T09:32:34;100197.25;;;22.63;46.85
50268;BME280;36153;50.960;6.220;2023-09-19T09:35:46;100185.63;;;23.45;45.74
50268;BME280;36153;50.960;6.220;2023-09-19T09:38:48;100184.38;;;23.33;45.60
50268;BME280;36153;50.960;6.220;2023-09-19T09:41:55;100181.66;;;23.73;45.53
50268;BME280;36153;50.960;6.220;2023-09-19T09:48:24;100176.94;;;23.42;45.38
50268;BME280;36153;50.960;6.220;2023-09-19T09:51:31;100185.03;;;23.39;45.46
50268;BME280;36153;50.960;6.220;2023-09-19T09:54:34;100191.44;;;24.09;44.45
50268;BME280;36153;50.960;6.220;2023-09-19T09:57:38;100186.72;;;24.49;43.75
50268;BME280;36153;50.960;6.220;2023-09-19T10:00:52;100190.06;;;24.37;43.50
50268;BME280;36153;50.960;6.220;2023-09-19T10:03:58;100190.81;;;24.39;42.95
50268;BME280;36153;50.960;6.220;2023-09-19T10:06:59;100185.16;;;23.93;44.09
50268;BME280;36153;50.960;6.220;2023-09-19T10:10:05;100178.69;;;24.51;43.42
50268;BME280;36153;50.960;6.220;2023-09-19T10:13:21;100183.22;;;24.14;42.87
50268;BME280;36153;50.960;6.220;2023-09-19T10:16:30;100171.53;;;23.62;43.68
50268;BME280;36153;50.960;6.220;2023-09-19T10:19:37;100173.28;;;23.81;42.82
50268;BME280;36153;50.960;6.220;2023-09-19T10:22:47;100171.53;;;23.62;42.96
50268;BME280;36153;50.960;6.220;2023-09-19T10:25:58;100169.94;;;23.77;43.55
50268;BME280;36153;50.960;6.220;2023-09-19T10:29:02;100165.72;;;23.54;42.70
50268;BME280;36153;50.960;6.220;2023-09-19T10:32:08;100175.91;;;23.63;42.62
50268;BME280;36153;50.960;6.220;2023-09-19T10:35:11;100168.53;;;23.51;42.54
50268;BME280;36153;50.960;6.220;2023-09-19T10:38:14;100167.16;;;23.61;42.69
50268;BME280;36153;50.960;6.220;2023-09-19T10:41:19;100167.63;;;23.69;42.29
50268;BME280;36153;50.960;6.220;2023-09-19T10:44:24;100172.06;;;23.88;42.23
50268;BME280;36153;50.960;6.220;2023-09-19T10:47:25;100163.91;;;23.55;42.08
50268;BME280;36153;50.960;6.220;2023-09-19T10:50:30;100166.06;;;24.02;41.95
50268;BME280;36153;50.960;6.220;2023-09-19T10:53:46;100167.72;;;23.49;41.20
50268;BME280;36153;50.960;6.220;2023-09-19T10:56:49;100163.44;;;23.83;41.10
50268;BME280;36153;50.960;6.220;2023-09-19T11:00:20;100169.91;;;23.96;41.06
50268;BME280;36153;50.960;6.220;2023-09-19T11:03:24;100176.00;;;23.98;42.01
50268;BME280;36153;50.960;6.220;2023-09-19T11:06:30;100174.38;;;23.96;41.36
50268;BME280;36153;50.960;6.220;2023-09-19T11:09:50;100168.47;;;23.89;41.11
50268;BME280;36153;50.960;6.220;2023-09-19T11:12:55;100176.53;;;23.68;40.92
50268;BME280;36153;50.960;6.220;2023-09-19T11:18:59;100187.28;;;24.56;40.50
50268;BME280;36153;50.960;6.220;2023-09-19T11:22:01;100182.16;;;24.70;40.02
50268;BME280;36153;50.960;6.220;2023-09-19T11:28:47;100186.00;;;24.65;40.09
50268;BME280;36153;50.960;6.220;2023-09-19T11:31:47;100175.09;;;25.19;39.07
50268;BME280;36153;50.960;6.220;2023-09-19T11:34:49;100173.09;;;25.07;40.29
50268;BME280;36153;50.960;6.220;2023-09-19T11:47:25;100168.84;;;25.20;39.12
50268;BME280;36153;50.960;6.220;2023-09-19T11:50:26;100166.72;;;25.43;38.66
50268;BME280;36153;50.960;6.220;2023-09-19T11:53:31;100163.28;;;25.72;38.33
50268;BME280;36153;50.960;6.220;2023-09-19T11:56:38;100162.03;;;25.94;37.92
50268;BME280;36153;50.960;6.220;2023-09-19T11:59:41;100158.72;;;25.75;38.16
50268;BME280;36153;50.960;6.220;2023-09-19T12:02:46;100148.19;;;25.57;37.87
50268;BME280;36153;50.960;6.220;2023-09-19T12:05:47;100153.34;;;25.11;37.47
50268;BME280;36153;50.960;6.220;2023-09-19T12:08:48;100150.06;;;25.39;38.19
50268;BME280;36153;50.960;6.220;2023-09-19T12:11:51;100151.00;;;25.22;38.02
50268;BME280;36153;50.960;6.220;2023-09-19T12:14:52;100147.22;;;25.26;37.40
50268;BME280;36153;50.960;6.220;2023-09-19T12:17:52;100152.16;;;25.80;37.20
50268;BME280;36153;50.960;6.220;2023-09-19T12:20:54;100148.22;;;26.18;37.13
50268;BME280;36153;50.960;6.220;2023-09-19T12:27:03;100146.13;;;26.09;37.05
50268;BME280;36153;50.960;6.220;2023-09-19T12:30:07;100133.97;;;25.72;37.41
50268;BME280;36153;50.960;6.220;2023-09-19T12:33:19;100132.75;;;25.78;36.73
50268;BME280;36153;50.960;6.220;2023-09-19T12:36:24;100133.22;;;26.46;36.05
50268;BME280;36153;50.960;6.220;2023-09-19T12:39:30;100125.84;;;26.20;36.82
50268;BME280;36153;50.960;6.220;2023-09-19T12:42:31;100131.53;;;25.84;36.86
50268;BME280;36153;50.960;6.220;2023-09-19T12:45:35;100118.03;;;26.03;36.07
50268;BME280;36153;50.960;6.220;2023-09-19T12:48:37;100116.16;;;26.19;35.98
50268;BME280;36153;50.960;6.220;2023-09-19T12:51:39;100118.28;;;26.43;36.15
50268;BME280;36153;50.960;6.220;2023-09-19T12:54:40;100117.31;;;26.30;36.32
50268;BME280;36153;50.960;6.220;2023-09-19T12:57:40;100101.59;;;26.39;36.48
50268;BME280;36153;50.960;6.220;2023-09-19T13:00:42;100098.06;;;26.53;36.03
50268;BME280;36153;50.960;6.220;2023-09-19T13:03:44;100096.00;;;26.73;35.81
50268;BME280;36153;50.960;6.220;2023-09-19T13:06:47;100100.09;;;26.64;36.35
50268;BME280;36153;50.960;6.220;2023-09-19T13:10:09;100101.41;;;26.43;35.70
50268;BME280;36153;50.960;6.220;2023-09-19T13:13:22;100111.72;;;26.04;36.96
50268;BME280;36153;50.960;6.220;2023-09-19T13:16:25;100120.06;;;26.28;36.70
50268;BME280;36153;50.960;6.220;2023-09-19T13:19:46;100118.25;;;26.29;36.30
50268;BME280;36153;50.960;6.220;2023-09-19T13:22:49;100128.63;;;26.19;36.62
50268;BME280;36153;50.960;6.220;2023-09-19T13:25:53;100131.97;;;26.96;36.67
50268;BME280;36153;50.960;6.220;2023-09-19T13:28:54;100118.25;;;25.98;37.63
50268;BME280;36153;50.960;6.220;2023-09-19T13:31:55;100134.31;;;25.66;38.18
50268;BME280;36153;50.960;6.220;2023-09-19T13:34:55;100133.63;;;25.63;38.09
50268;BME280;36153;50.960;6.220;2023-09-19T13:37:55;100126.25;;;25.68;38.51
50268;BME280;36153;50.960;6.220;2023-09-19T13:40:56;100127.44;;;25.14;39.16
50268;BME280;36153;50.960;6.220;2023-09-19T13:43:56;100119.97;;;25.21;39.23
50268;BME280;36153;50.960;6.220;2023-09-19T13:46:57;100115.94;;;25.46;38.57
50268;BME280;36153;50.960;6.220;2023-09-19T13:49:57;100125.19;;;25.22;38.85
50268;BME280;36153;50.960;6.220;2023-09-19T13:52:57;100125.56;;;25.64;38.41
50268;BME280;36153;50.960;6.220;2023-09-19T13:56:00;100115.66;;;25.66;38.12
50268;BME280;36153;50.960;6.220;2023-09-19T13:59:01;100120.41;;;25.45;38.27
50268;BME280;36153;50.960;6.220;2023-09-19T14:02:04;100125.78;;;25.76;37.94
50268;BME280;36153;50.960;6.220;2023-09-19T14:05:06;100123.84;;;25.94;37.96
50268;BME280;36153;50.960;6.220;2023-09-19T14:08:06;100125.00;;;26.20;36.93
50268;BME280;36153;50.960;6.220;2023-09-19T14:11:08;100116.00;;;26.66;36.28
50268;BME280;36153;50.960;6.220;2023-09-19T14:14:08;100134.34;;;26.27;36.75
50268;BME280;36153;50.960;6.220;2023-09-19T14:17:09;100133.16;;;25.86;37.39
50268;BME280;36153;50.960;6.220;2023-09-19T14:20:09;100134.84;;;25.57;37.86
50268;BME280;36153;50.960;6.220;2023-09-19T14:23:10;100118.84;;;25.41;38.49
50268;BME280;36153;50.960;6.220;2023-09-19T14:26:11;100133.78;;;25.12;38.58
50268;BME280;36153;50.960;6.220;2023-09-19T14:29:11;100124.53;;;24.69;39.07
50268;BME280;36153;50.960;6.220;2023-09-19T14:32:12;100118.78;;;24.77;38.99
50268;BME280;36153;50.960;6.220;2023-09-19T14:35:13;100116.84;;;24.63;39.64
50268;BME280;36153;50.960;6.220;2023-09-19T14:38:14;100123.59;;;24.86;39.37
50268;BME280;36153;50.960;6.220;2023-09-19T14:41:14;100120.41;;;24.80;39.28
50268;BME280;36153;50.960;6.220;2023-09-19T14:44:15;100118.66;;;24.96;39.29
50268;BME280;36153;50.960;6.220;2023-09-19T14:47:18;100114.69;;;25.03;38.89
50268;BME280;36153;50.960;6.220;2023-09-19T14:50:19;100101.75;;;24.64;39.37
50268;BME280;36153;50.960;6.220;2023-09-19T14:53:20;100113.59;;;25.24;38.72
50268;BME280;36153;50.960;6.220;2023-09-19T14:56:20;100112.88;;;25.37;38.79
50268;BME280;36153;50.960;6.220;2023-09-19T14:59:21;100118.50;;;25.31;39.15
50268;BME280;36153;50.960;6.220;2023-09-19T15:02:22;100119.53;;;25.13;39.42
50268;BME280;36153;50.960;6.220;2023-09-19T15:05:22;100111.75;;;24.92;39.38
50268;BME280;36153;50.960;6.220;2023-09-19T15:08:22;100109.09;;;24.59;39.84
50268;BME280;36153;50.960;6.220;2023-09-19T15:11:23;100111.13;;;24.53;40.00
50268;BME280;36153;50.960;6.220;2023-09-19T15:14:24;100106.78;;;24.86;39.79
50268;BME280;36153;50.960;6.220;2023-09-19T15:17:25;100112.00;;;24.54;40.07
50268;BME280;36153;50.960;6.220;2023-09-19T15:20:25;100106.56;;;24.22;40.19
50268;BME280;36153;50.960;6.220;2023-09-19T15:23:26;100105.50;;;24.60;40.00
50268;BME280;36153;50.960;6.220;2023-09-19T15:26:26;100109.19;;;24.40;40.38
50268;BME280;36153;50.960;6.220;2023-09-19T15:29:27;100105.25;;;24.82;39.93
50268;BME280;36153;50.960;6.220;2023-09-19T15:32:28;100093.03;;;24.78;39.65
50268;BME280;36153;50.960;6.220;2023-09-19T15:35:28;100092.88;;;24.97;39.73
50268;BME280;36153;50.960;6.220;2023-09-19T15:38:29;100088.53;;;25.44;39.03
50268;BME280;36153;50.960;6.220;2023-09-19T15:41:37;100092.22;;;25.57;38.64
50268;BME280;36153;50.960;6.220;2023-09-19T15:44:38;100077.81;;;25.90;37.75
50268;BME280;36153;50.960;6.220;2023-09-19T15:47:38;100083.28;;;25.58;38.12
50268;BME280;36153;50.960;6.220;2023-09-19T15:50:39;100085.84;;;25.44;38.68
50268;BME280;36153;50.960;6.220;2023-09-19T15:53:46;100082.31;;;25.27;38.90
50268;BME280;36153;50.960;6.220;2023-09-19T15:56:47;100079.31;;;25.01;39.00
50268;BME280;36153;50.960;6.220;2023-09-19T15:59:48;100082.25;;;25.45;38.93
50268;BME280;36153;50.960;6.220;2023-09-19T16:02:49;100075.66;;;25.66;38.53
50268;BME280;36153;50.960;6.220;2023-09-19T16:05:50;100074.09;;;25.78;38.32
50268;BME280;36153;50.960;6.220;2023-09-19T16:08:53;100078.63;;;24.82;39.52
50268;BME280;36153;50.960;6.220;2023-09-19T16:11:55;100077.34;;;24.56;40.55
50268;BME280;36153;50.960;6.220;2023-09-19T16:14:56;100066.97;;;24.33;40.50
50268;BME280;36153;50.960;6.220;2023-09-19T16:17:56;100077.25;;;24.75;40.26
50268;BME280;36153;50.960;6.220;2023-09-19T16:21:03;100084.81;;;25.14;39.63
50268;BME280;36153;50.960;6.220;2023-09-19T16:24:04;100080.25;;;25.00;39.56
50268;BME280;36153;50.960;6.220;2023-09-19T16:27:04;100085.16;;;25.08;39.50
50268;BME280;36153;50.960;6.220;2023-09-19T16:30:08;100081.69;;;24.74;40.01